createdAt,value
2018-07-16T00:01:33.109Z,10.17
2018-07-16T00:04:01.314Z,10.87
2018-07-16T00:06:29.513Z,10.03
2018-07-16T00:08:57.837Z,10.40
2018-07-16T00:11:26.061Z,10.23
2018-07-16T00:13:54.593Z,9.67
2018-07-16T00:16:22.820Z,10.17
2018-07-16T00:18:51.095Z,10.67
2018-07-16T00:21:19.393Z,10.70
2018-07-16T00:23:47.643Z,9.10
2018-07-16T00:26:15.867Z,10.23
2018-07-16T00:28:44.059Z,9.57
2018-07-16T00:31:12.581Z,10.40
2018-07-16T00:33:40.826Z,9.70
2018-07-16T00:36:09.054Z,8.93
2018-07-16T00:38:37.321Z,9.90
2018-07-16T00:41:06.293Z,9.27
2018-07-16T00:43:35.512Z,8.60
2018-07-16T00:46:03.770Z,9.70
2018-07-16T00:48:32.046Z,8.77
2018-07-16T00:51:00.244Z,9.27
2018-07-16T00:53:28.845Z,8.60
2018-07-16T00:55:56.807Z,8.53
2018-07-16T00:58:25.049Z,8.40
2018-07-16T01:00:53.345Z,11.80
2018-07-16T01:03:21.560Z,9.40
2018-07-16T01:05:49.839Z,8.70
2018-07-16T01:08:18.086Z,8.57
2018-07-16T01:10:46.322Z,8.07
2018-07-16T01:13:14.646Z,8.47
2018-07-16T01:15:42.894Z,7.70
2018-07-16T01:18:10.892Z,8.00
2018-07-16T01:20:39.265Z,7.77
2018-07-16T01:23:07.528Z,6.57
2018-07-16T01:25:35.950Z,7.23
2018-07-16T01:28:04.610Z,9.63
2018-07-16T01:30:32.881Z,6.17
2018-07-16T01:33:01.102Z,9.70
2018-07-16T01:35:29.509Z,6.43
2018-07-16T01:37:57.771Z,6.80
2018-07-16T01:40:25.768Z,5.90
2018-07-16T01:42:53.994Z,5.70
2018-07-16T01:45:22.589Z,6.10
2018-07-16T01:47:50.798Z,6.33
2018-07-16T01:50:19.108Z,7.00
2018-07-16T01:52:47.329Z,5.10
2018-07-16T01:55:15.539Z,6.13
2018-07-16T01:57:43.769Z,6.30
2018-07-16T02:00:12.026Z,6.00
2018-07-16T02:02:40.670Z,5.90
2018-07-16T02:05:08.921Z,5.50
2018-07-16T02:07:37.249Z,5.33
2018-07-16T02:10:05.561Z,5.50
2018-07-16T02:12:33.825Z,5.90
2018-07-16T02:15:02.199Z,5.43
2018-07-16T02:17:30.430Z,5.80
2018-07-16T02:19:58.658Z,5.63
2018-07-16T02:22:26.900Z,7.63
2018-07-16T02:24:55.230Z,6.63
2018-07-16T02:27:23.543Z,5.60
2018-07-16T02:29:51.503Z,6.27
2018-07-16T02:32:19.782Z,5.60
2018-07-16T02:34:48.017Z,6.70
2018-07-16T02:37:16.534Z,6.13
2018-07-16T02:39:44.805Z,5.60
2018-07-16T02:42:13.003Z,5.40
2018-07-16T02:44:41.210Z,5.40
2018-07-16T02:47:09.438Z,5.67
2018-07-16T02:49:37.681Z,5.40
2018-07-16T02:52:06.007Z,5.43
2018-07-16T02:54:34.290Z,5.80
2018-07-16T02:57:02.549Z,5.33
2018-07-16T02:59:30.965Z,7.37
2018-07-16T03:01:59.262Z,5.40
2018-07-16T03:04:27.522Z,8.57
2018-07-16T03:06:55.786Z,6.40
2018-07-16T03:09:23.995Z,5.90
2018-07-16T03:11:52.337Z,5.97
2018-07-16T03:14:20.600Z,5.63
2018-07-16T03:16:49.126Z,6.13
2018-07-16T03:19:17.353Z,6.90
2018-07-16T03:21:45.626Z,5.83
2018-07-16T03:24:13.676Z,5.80
2018-07-16T03:26:41.927Z,5.97
2018-07-16T03:29:10.292Z,7.93
2018-07-16T03:31:38.567Z,5.70
2018-07-16T03:34:07.029Z,6.90
2018-07-16T03:36:35.353Z,6.50
2018-07-16T03:39:04.440Z,6.70
2018-07-16T03:41:32.718Z,6.60
2018-07-16T03:44:00.970Z,6.57
2018-07-16T03:46:29.218Z,7.30
2018-07-16T03:48:57.465Z,6.80
2018-07-16T03:51:25.766Z,8.53
2018-07-16T03:53:53.961Z,6.53
2018-07-16T03:56:22.273Z,7.30
2018-07-16T03:58:50.296Z,6.60
2018-07-16T04:01:18.593Z,9.03
2018-07-16T04:03:46.815Z,7.13
2018-07-16T04:06:14.780Z,6.73
2018-07-16T04:08:43.055Z,7.33
2018-07-16T04:11:11.071Z,7.23
2018-07-16T04:13:39.462Z,8.03
2018-07-16T04:16:07.832Z,8.07
2018-07-16T04:18:36.070Z,7.70
2018-07-16T04:21:04.359Z,7.67
2018-07-16T04:23:32.565Z,8.30
2018-07-16T04:26:00.852Z,7.43
2018-07-16T04:28:29.086Z,7.07
2018-07-16T04:30:57.385Z,7.23
2018-07-16T04:33:25.364Z,7.00
2018-07-16T04:35:53.667Z,8.87
2018-07-16T04:38:21.926Z,7.10
2018-07-16T04:40:50.462Z,8.30
2018-07-16T04:43:19.102Z,7.70
2018-07-16T04:45:47.310Z,7.23
2018-07-16T04:48:15.609Z,7.00
2018-07-16T04:50:43.935Z,7.97
2018-07-16T04:53:12.166Z,7.53
2018-07-16T04:55:40.390Z,7.37
2018-07-16T04:58:08.416Z,8.30
2018-07-16T05:00:36.656Z,7.23
2018-07-16T05:03:05.928Z,8.50
2018-07-16T05:05:34.151Z,7.20
2018-07-16T05:08:02.423Z,8.10
2018-07-16T05:10:30.698Z,7.87
2018-07-16T05:12:58.967Z,8.00
2018-07-16T05:15:27.186Z,7.47
2018-07-16T05:17:55.401Z,7.30
2018-07-16T05:20:23.737Z,7.60
2018-07-16T05:22:53.026Z,8.77
2018-07-16T05:25:21.378Z,8.10
2018-07-16T05:27:49.658Z,7.50
2018-07-16T05:30:17.980Z,7.77
2018-07-16T05:32:46.188Z,7.73
2018-07-16T05:35:14.295Z,12.43
2018-07-16T05:37:42.554Z,7.90
2018-07-16T05:40:10.834Z,7.37
2018-07-16T05:42:39.124Z,8.50
2018-07-16T05:45:07.418Z,8.20
2018-07-16T05:47:35.714Z,8.90
2018-07-16T05:50:03.982Z,8.83
2018-07-16T05:52:32.353Z,8.50
2018-07-16T05:55:00.587Z,9.60
2018-07-16T05:57:28.647Z,8.37
2018-07-16T05:59:57.102Z,8.50
2018-07-16T06:02:25.342Z,9.23
2018-07-16T06:04:53.586Z,8.60
2018-07-16T06:07:21.833Z,8.07
2018-07-16T06:09:50.042Z,8.70
2018-07-16T06:12:18.355Z,8.13
2018-07-16T06:14:46.393Z,7.90
2018-07-16T06:17:14.641Z,8.27
2018-07-16T06:19:42.889Z,11.70
2018-07-16T06:22:11.218Z,8.80
2018-07-16T06:24:39.541Z,7.40
2018-07-16T06:27:07.781Z,11.60
2018-07-16T06:29:36.013Z,8.23
2018-07-16T06:32:04.221Z,7.87
2018-07-16T06:34:32.536Z,8.13
2018-07-16T06:37:00.796Z,7.60
2018-07-16T06:39:29.093Z,7.87
2018-07-16T06:41:57.341Z,7.70
2018-07-16T06:44:25.592Z,8.40
2018-07-16T06:46:53.873Z,7.53
2018-07-16T06:49:22.506Z,6.63
2018-07-16T06:51:57.177Z,6.60
2018-07-16T06:54:25.859Z,7.13
2018-07-16T06:56:54.135Z,7.53
2018-07-16T06:59:22.409Z,7.67
2018-07-16T07:01:50.710Z,7.10
2018-07-16T07:04:18.986Z,6.43
2018-07-16T07:06:47.281Z,5.93
2018-07-16T07:09:15.494Z,5.40
2018-07-16T07:11:43.813Z,5.77
2018-07-16T07:14:12.067Z,5.37
2018-07-16T07:16:40.358Z,5.33
2018-07-16T07:19:08.608Z,4.57
2018-07-16T07:21:36.969Z,4.27
2018-07-16T07:24:05.177Z,3.97
2018-07-16T07:26:33.478Z,3.60
2018-07-16T07:29:01.707Z,3.77
2018-07-16T07:31:30.015Z,3.80
2018-07-16T07:33:58.353Z,7.97
2018-07-16T07:36:27.013Z,4.60
2018-07-16T07:38:55.357Z,4.73
2018-07-16T07:41:23.665Z,4.07
2018-07-16T07:43:51.938Z,4.60
2018-07-16T07:46:20.214Z,4.00
2018-07-16T07:48:48.418Z,5.07
2018-07-16T07:51:16.719Z,4.03
2018-07-16T07:53:44.999Z,5.40
2018-07-16T07:56:13.271Z,4.27
2018-07-16T07:58:41.492Z,4.13
2018-07-16T08:01:09.733Z,3.47
2018-07-16T08:03:38.010Z,4.13
2018-07-16T08:06:07.293Z,3.17
2018-07-16T08:08:36.900Z,3.33
2018-07-16T08:11:05.869Z,4.80
2018-07-16T08:13:34.175Z,5.57
2018-07-16T08:16:02.845Z,3.03
2018-07-16T08:18:31.193Z,3.40
2018-07-16T08:20:59.555Z,3.60
2018-07-16T08:23:27.883Z,3.70
2018-07-16T08:25:56.193Z,3.90
2018-07-16T08:28:24.490Z,4.33
2018-07-16T08:30:52.829Z,3.57
2018-07-16T08:33:21.161Z,4.03
2018-07-16T08:35:49.404Z,4.30
2018-07-16T08:38:17.810Z,4.00
2018-07-16T08:40:46.125Z,3.67
2018-07-16T08:43:14.449Z,3.43
2018-07-16T08:45:42.776Z,6.50
2018-07-16T08:48:10.997Z,3.03
2018-07-16T08:50:39.284Z,5.30
2018-07-16T08:53:07.557Z,2.90
2018-07-16T08:55:35.782Z,3.00
2018-07-16T08:58:04.158Z,2.67
2018-07-16T09:00:32.372Z,2.67
2018-07-16T09:03:00.619Z,3.10
2018-07-16T09:05:28.888Z,2.00
2018-07-16T09:07:57.178Z,2.17
2018-07-16T09:10:25.458Z,2.10
2018-07-16T09:12:53.707Z,2.90
2018-07-16T09:15:21.946Z,3.33
2018-07-16T09:17:50.471Z,2.63
2018-07-16T09:20:18.766Z,2.40
2018-07-16T09:22:47.049Z,2.30
2018-07-16T09:25:15.398Z,3.27
2018-07-16T09:27:43.745Z,2.50
2018-07-16T09:30:11.997Z,2.23
2018-07-16T09:32:40.318Z,2.20
2018-07-16T09:35:08.525Z,2.80
2018-07-16T09:37:36.814Z,2.90
2018-07-16T09:40:05.396Z,2.53
2018-07-16T09:42:33.644Z,4.37
2018-07-16T09:45:01.976Z,3.87
2018-07-16T09:47:30.298Z,2.37
2018-07-16T09:49:58.628Z,2.50
2018-07-16T09:52:26.941Z,2.57
2018-07-16T09:54:55.241Z,2.60
2018-07-16T09:57:23.456Z,2.50
2018-07-16T09:59:51.694Z,3.47
2018-07-16T10:02:20.018Z,3.43
2018-07-16T10:04:48.366Z,2.87
2018-07-16T10:07:16.590Z,2.53
2018-07-16T10:09:45.041Z,5.63
2018-07-16T10:12:13.049Z,2.63
2018-07-16T10:14:41.450Z,2.67
2018-07-16T10:17:10.233Z,2.93
2018-07-16T10:19:38.679Z,4.40
2018-07-16T10:22:06.918Z,3.80
2018-07-16T10:24:35.197Z,3.90
2018-07-16T10:27:04.110Z,2.93
2018-07-16T10:29:32.332Z,4.50
2018-07-16T10:32:00.757Z,3.30
2018-07-16T10:34:29.027Z,2.77
2018-07-16T10:36:57.258Z,2.90
2018-07-16T10:39:25.589Z,3.20
2018-07-16T10:41:53.762Z,3.70
2018-07-16T10:44:22.030Z,2.40
2018-07-16T10:46:50.262Z,2.60
2018-07-16T10:49:18.534Z,2.70
2018-07-16T10:51:46.763Z,2.70
2018-07-16T10:54:15.006Z,2.70
2018-07-16T10:56:43.279Z,3.13
2018-07-16T10:59:11.633Z,2.97
2018-07-16T11:01:40.090Z,2.77
2018-07-16T11:04:08.419Z,2.57
2018-07-16T11:06:36.749Z,2.87
2018-07-16T11:09:06.378Z,3.00
2018-07-16T11:11:34.640Z,3.93
2018-07-16T11:14:02.887Z,2.60
2018-07-16T11:16:31.198Z,4.57
2018-07-16T11:18:59.505Z,2.93
2018-07-16T11:21:27.705Z,2.77
2018-07-16T11:23:56.069Z,2.80
2018-07-16T11:26:24.331Z,2.57
2018-07-16T11:28:52.557Z,3.33
2018-07-16T11:31:20.918Z,2.53
2018-07-16T11:33:49.142Z,2.80
2018-07-16T11:36:17.502Z,2.67
2018-07-16T11:38:45.775Z,2.37
2018-07-16T11:41:14.064Z,2.50
2018-07-16T11:43:42.364Z,3.40
2018-07-16T11:46:11.218Z,2.60
2018-07-16T11:48:39.593Z,2.60
2018-07-16T11:51:07.865Z,3.70
2018-07-16T11:53:36.149Z,2.93
2018-07-16T11:56:04.394Z,2.70
2018-07-16T11:58:32.665Z,4.30
2018-07-16T12:01:00.949Z,5.33
2018-07-16T12:03:29.223Z,3.80
2018-07-16T12:05:57.511Z,4.90
2018-07-16T12:08:25.718Z,2.60
2018-07-16T12:10:53.953Z,3.13
2018-07-16T12:13:22.205Z,2.70
2018-07-16T12:15:50.481Z,2.80
2018-07-16T12:18:18.709Z,2.83
2018-07-16T12:20:47.006Z,2.70
2018-07-16T12:23:15.246Z,2.67
2018-07-16T12:25:43.454Z,4.60
2018-07-16T12:28:11.776Z,2.40
2018-07-16T12:30:40.101Z,3.00
2018-07-16T12:33:08.502Z,2.80
2018-07-16T12:35:36.846Z,2.97
2018-07-16T12:38:05.063Z,3.07
2018-07-16T12:40:33.277Z,2.80
2018-07-16T12:43:01.590Z,2.80
2018-07-16T12:45:29.798Z,2.93
2018-07-16T12:47:58.102Z,5.03
2018-07-16T12:50:26.311Z,3.20
2018-07-16T12:52:54.526Z,2.90
2018-07-16T12:55:22.838Z,5.00
2018-07-16T12:57:51.065Z,2.90
2018-07-16T13:00:19.291Z,4.67
2018-07-16T13:02:47.510Z,2.93
2018-07-16T13:05:15.726Z,3.43
2018-07-16T13:07:44.004Z,5.17
2018-07-16T13:10:12.706Z,2.60
2018-07-16T13:12:40.981Z,3.40
2018-07-16T13:15:09.327Z,3.30
2018-07-16T13:17:37.598Z,2.80
2018-07-16T13:20:05.853Z,2.70
2018-07-16T13:22:34.177Z,3.37
2018-07-16T13:25:02.450Z,3.40
2018-07-16T13:27:30.706Z,3.47
2018-07-16T13:29:58.991Z,3.30
2018-07-16T13:32:27.526Z,2.90
2018-07-16T13:34:55.771Z,3.13
2018-07-16T13:37:24.003Z,3.50
2018-07-16T13:39:52.325Z,4.30
2018-07-16T13:42:20.685Z,3.10
2018-07-16T13:44:49.005Z,3.70
2018-07-16T13:47:17.008Z,3.63
2018-07-16T13:49:45.317Z,4.20
2018-07-16T13:52:13.667Z,3.37
2018-07-16T13:54:41.947Z,3.33
2018-07-16T13:57:10.322Z,3.53
2018-07-16T13:59:38.577Z,3.20
2018-07-16T14:02:07.320Z,4.20
2018-07-16T14:04:35.489Z,3.30
2018-07-16T14:07:03.754Z,2.90
2018-07-16T14:09:31.997Z,3.40
2018-07-16T14:12:00.195Z,3.40
2018-07-16T14:14:28.462Z,2.90
2018-07-16T14:16:56.713Z,3.70
2018-07-16T14:19:24.932Z,3.77
2018-07-16T14:21:53.257Z,4.00
2018-07-16T14:24:21.545Z,3.03
2018-07-16T14:26:49.845Z,3.67
2018-07-16T14:29:18.150Z,3.77
2018-07-16T14:31:46.470Z,4.47
2018-07-16T14:34:14.674Z,3.17
2018-07-16T14:36:42.885Z,3.30
2018-07-16T14:39:11.122Z,3.10
2018-07-16T14:41:39.748Z,3.77
2018-07-16T14:44:08.038Z,3.10
2018-07-16T14:46:36.305Z,3.93
2018-07-16T14:49:04.548Z,3.53
2018-07-16T14:51:32.790Z,4.10
2018-07-16T14:54:00.998Z,4.50
2018-07-16T14:56:29.217Z,3.90
2018-07-16T14:58:57.438Z,4.10
2018-07-16T15:01:25.729Z,3.83
2018-07-16T15:03:53.953Z,3.00
2018-07-16T15:06:22.204Z,3.70
2018-07-16T15:08:50.455Z,3.30
2018-07-16T15:11:18.781Z,4.00
2018-07-16T15:13:47.023Z,3.53
2018-07-16T15:16:15.609Z,3.47
2018-07-16T15:18:43.848Z,3.60
2018-07-16T15:21:12.390Z,3.27
2018-07-16T15:23:40.417Z,3.23
2018-07-16T15:26:08.685Z,3.50
2018-07-16T15:28:36.905Z,3.20
2018-07-16T15:31:05.157Z,3.87
2018-07-16T15:33:33.638Z,3.57
2018-07-16T15:36:01.842Z,4.00
2018-07-16T15:38:30.096Z,3.87
2018-07-16T15:40:58.337Z,3.20
2018-07-16T15:43:26.614Z,5.77
2018-07-16T15:45:54.819Z,5.73
2018-07-16T15:48:23.110Z,4.80
2018-07-16T15:50:51.327Z,3.70
2018-07-16T15:53:19.563Z,3.57
2018-07-16T15:55:47.861Z,3.90
2018-07-16T15:58:16.125Z,3.97
2018-07-16T16:00:44.361Z,3.30
2018-07-16T16:03:12.585Z,3.20
2018-07-16T16:05:40.804Z,3.73
2018-07-16T16:08:09.146Z,6.00
2018-07-16T16:10:37.361Z,7.87
2018-07-16T16:13:05.766Z,3.47
2018-07-16T16:15:33.965Z,3.80
2018-07-16T16:18:02.202Z,3.67
2018-07-16T16:20:30.546Z,3.20
2018-07-16T16:22:58.765Z,3.63
2018-07-16T16:25:27.059Z,5.37
2018-07-16T16:27:55.335Z,4.17
2018-07-16T16:30:23.638Z,3.00
2018-07-16T16:32:52.527Z,3.33
2018-07-16T16:35:20.721Z,3.60
2018-07-16T16:37:48.955Z,3.00
2018-07-16T16:40:17.169Z,9.03
2018-07-16T16:42:45.378Z,2.83
2018-07-16T16:45:13.789Z,4.90
2018-07-16T16:47:42.841Z,3.23
2018-07-16T16:50:11.153Z,5.50
2018-07-16T16:52:39.458Z,3.10
2018-07-16T16:55:07.754Z,2.77
2018-07-16T16:57:36.041Z,3.40
2018-07-16T17:00:04.749Z,2.90
2018-07-16T17:02:33.589Z,2.83
2018-07-16T17:05:02.204Z,4.73
2018-07-16T17:07:30.497Z,2.70
2018-07-16T17:09:58.808Z,2.70
2018-07-16T17:12:27.029Z,3.53
2018-07-16T17:14:55.346Z,3.27
2018-07-16T17:17:23.690Z,2.53
2018-07-16T17:19:51.897Z,3.00
2018-07-16T17:22:20.140Z,3.20
2018-07-16T17:24:48.374Z,3.23
2018-07-16T17:27:16.746Z,2.70
2018-07-16T17:29:44.973Z,2.90
2018-07-16T17:32:13.190Z,3.63
2018-07-16T17:34:41.545Z,2.80
2018-07-16T17:37:09.694Z,3.17
2018-07-16T17:39:37.912Z,2.43
2018-07-16T17:42:06.225Z,2.70
2018-07-16T17:44:34.630Z,4.07
2018-07-16T17:47:02.860Z,5.20
2018-07-16T17:49:31.129Z,4.27
2018-07-16T17:52:06.241Z,3.30
2018-07-16T17:54:34.497Z,5.50
2018-07-16T17:57:02.697Z,2.97
2018-07-16T17:59:30.991Z,3.03
2018-07-16T18:01:59.267Z,2.63
2018-07-16T18:04:27.534Z,2.83
2018-07-16T18:06:55.827Z,4.13
2018-07-16T18:09:24.069Z,3.00
2018-07-16T18:11:52.298Z,3.10
2018-07-16T18:14:20.537Z,3.13
2018-07-16T18:16:48.899Z,2.73
2018-07-16T18:19:17.213Z,3.00
2018-07-16T18:21:46.366Z,4.20
2018-07-16T18:24:14.571Z,2.90
2018-07-16T18:26:42.874Z,5.47
2018-07-16T18:29:11.094Z,2.97
2018-07-16T18:31:39.930Z,4.53
2018-07-16T18:34:08.298Z,4.80
2018-07-16T18:36:36.573Z,2.97
2018-07-16T18:39:07.181Z,3.80
2018-07-16T18:41:35.518Z,3.30
2018-07-16T18:44:03.778Z,3.30
2018-07-16T18:46:31.990Z,3.17
2018-07-16T18:49:00.270Z,3.90
2018-07-16T18:51:28.674Z,3.37
2018-07-16T18:53:56.932Z,3.37
2018-07-16T18:56:25.228Z,3.13
2018-07-16T18:58:53.529Z,3.07
2018-07-16T19:01:21.781Z,4.43
2018-07-16T19:03:50.042Z,3.70
2018-07-16T19:06:18.354Z,3.17
2018-07-16T19:08:46.567Z,3.80
2018-07-16T19:11:14.821Z,3.07
2018-07-16T19:13:43.030Z,3.33
2018-07-16T19:16:11.292Z,6.10
2018-07-16T19:18:39.527Z,3.57
2018-07-16T19:21:07.856Z,4.00
2018-07-16T19:23:36.180Z,3.67
2018-07-16T19:26:04.431Z,4.10
2018-07-16T19:28:32.699Z,5.57
2018-07-16T19:31:00.850Z,4.70
2018-07-16T19:33:29.153Z,3.80
2018-07-16T19:35:57.453Z,3.00
2018-07-16T19:38:25.710Z,3.67
2018-07-16T19:40:53.901Z,5.47
2018-07-16T19:43:22.176Z,4.23
2018-07-16T19:45:50.426Z,5.00
2018-07-16T19:48:18.769Z,5.10
2018-07-16T19:50:46.982Z,5.20
2018-07-16T19:53:15.301Z,6.30
2018-07-16T19:55:43.510Z,4.97
2018-07-16T19:58:11.871Z,4.73
2018-07-16T20:00:40.088Z,4.50
2018-07-16T20:03:08.356Z,4.83
2018-07-16T20:05:36.841Z,4.43
2018-07-16T20:08:05.162Z,4.30
2018-07-16T20:10:33.988Z,6.40
2018-07-16T20:13:02.206Z,5.10
2018-07-16T20:15:30.596Z,5.50
2018-07-16T20:17:58.805Z,6.23
2018-07-16T20:20:27.086Z,5.93
2018-07-16T20:22:55.372Z,5.77
2018-07-16T20:25:23.610Z,6.17
2018-07-16T20:27:51.933Z,5.70
2018-07-16T20:30:20.169Z,5.43
2018-07-16T20:32:48.409Z,5.80
2018-07-16T20:35:16.620Z,6.30
2018-07-16T20:37:44.938Z,5.60
2018-07-16T20:40:13.401Z,8.80
2018-07-16T20:42:41.619Z,6.03
2018-07-16T20:45:11.039Z,4.77
2018-07-16T20:47:41.222Z,6.47
2018-07-16T20:50:09.495Z,4.83
2018-07-16T20:52:37.731Z,8.30
2018-07-16T20:55:05.994Z,5.77
2018-07-16T20:57:34.249Z,9.53
2018-07-16T21:00:02.438Z,7.80
2018-07-16T21:02:30.789Z,6.33
2018-07-16T21:04:58.998Z,6.60
2018-07-16T21:07:27.274Z,7.27
2018-07-16T21:09:55.569Z,10.47
2018-07-16T21:12:23.794Z,7.03
2018-07-16T21:14:52.063Z,7.07
2018-07-16T21:17:20.306Z,7.90
2018-07-16T21:19:48.326Z,7.07
2018-07-16T21:22:16.389Z,6.37
2018-07-16T21:24:44.703Z,7.67
2018-07-16T21:27:12.992Z,7.10
2018-07-16T21:29:41.223Z,7.00
2018-07-16T21:32:09.473Z,6.33
2018-07-16T21:34:37.663Z,7.33
2018-07-16T21:37:05.924Z,7.10
2018-07-16T21:39:34.172Z,6.80
2018-07-16T21:42:02.242Z,8.60
2018-07-16T21:44:30.401Z,7.47
2018-07-16T21:46:58.724Z,7.07
2018-07-16T21:49:26.745Z,7.87
2018-07-16T21:51:54.987Z,8.23
2018-07-16T21:54:23.278Z,8.07
2018-07-16T21:56:51.501Z,7.67
2018-07-16T21:59:20.128Z,8.40
2018-07-16T22:01:48.113Z,8.40
2018-07-16T22:04:16.873Z,7.67
2018-07-16T22:06:45.119Z,8.20
2018-07-16T22:09:13.394Z,8.63
2018-07-16T22:11:41.708Z,6.87
2018-07-16T22:14:09.950Z,10.10
2018-07-16T22:16:38.266Z,7.47
2018-07-16T22:19:06.646Z,7.40
2018-07-16T22:21:34.925Z,7.80
2018-07-16T22:24:03.126Z,7.27
2018-07-16T22:26:31.426Z,7.60
2018-07-16T22:28:59.650Z,6.50
2018-07-16T22:31:27.859Z,6.60
2018-07-16T22:33:56.124Z,5.33
2018-07-16T22:36:24.388Z,5.23
2018-07-16T22:38:52.817Z,5.90
2018-07-16T22:41:21.426Z,5.10
2018-07-16T22:43:49.670Z,5.20
2018-07-16T22:46:17.901Z,4.80
2018-07-16T22:48:45.872Z,4.83
2018-07-16T22:51:14.234Z,4.97
2018-07-16T22:53:42.498Z,5.20
2018-07-16T22:56:11.061Z,4.60
2018-07-16T22:58:39.313Z,3.93
2018-07-16T23:01:07.621Z,4.00
2018-07-16T23:03:35.845Z,4.40
2018-07-16T23:06:04.130Z,3.70
2018-07-16T23:08:32.136Z,4.10
2018-07-16T23:11:00.559Z,4.10
2018-07-16T23:13:29.097Z,3.80
2018-07-16T23:15:57.328Z,4.10
2018-07-16T23:18:25.577Z,4.70
2018-07-16T23:20:53.838Z,4.30
2018-07-16T23:23:22.049Z,4.27
2018-07-16T23:25:50.327Z,4.40
2018-07-16T23:28:18.602Z,4.17
2018-07-16T23:30:46.873Z,4.70
2018-07-16T23:33:15.291Z,4.07
2018-07-16T23:35:43.557Z,4.50
2018-07-16T23:38:11.782Z,5.40
2018-07-16T23:40:40.083Z,5.00
2018-07-16T23:43:08.281Z,5.67
2018-07-16T23:45:36.485Z,4.37
2018-07-16T23:48:05.262Z,4.97
2018-07-16T23:50:33.494Z,5.03
2018-07-16T23:53:01.688Z,4.87
2018-07-16T23:55:29.692Z,5.93
2018-07-16T23:57:57.886Z,6.17
